Time;durP1;ratioP1;P1;durP2;ratioP2;P2;SDS_P1;SDS_P2;PMS_P1;PMS_P2;Temp;Humidity;BMP_temperature;BMP_pressure;BME280_temperature;BME280_humidity;BME280_pressure;Samples;Min_cycle;Max_cycle;Signal;HPM_P1;HPM_P2
2022/11/10 00:01:22;;;;;;;5.00;1.40;;;13.40;99.90;;;;;;4944449;29;20467;-82
2022/11/10 00:03:57;;;;;;;6.40;1.80;;;13.40;99.90;;;;;;4938909;29;20480;-83
2022/11/10 00:06:29;;;;;;;4.20;2.90;;;13.40;99.90;;;;;;4950199;29;21040;-82
2022/11/10 00:08:59;;;;;;;5.93;1.80;;;13.20;99.90;;;;;;4947893;29;20445;-83
2022/11/10 00:11:31;;;;;;;3.07;1.47;;;13.30;99.90;;;;;;4928598;29;20495;-83
2022/11/10 00:17:05;;;;;;;6.37;1.60;;;13.30;99.90;;;;;;4947793;29;20984;-84
2022/11/10 00:19:37;;;;;;;5.23;2.00;;;13.20;99.90;;;;;;4942632;29;20942;-85
2022/11/10 00:22:06;;;;;;;4.63;1.60;;;13.30;99.90;;;;;;4933299;29;20477;-84
2022/11/10 00:24:38;;;;;;;5.03;1.40;;;13.20;99.90;;;;;;4948736;29;20997;-84
2022/11/10 00:27:11;;;;;;;3.83;1.40;;;13.30;99.90;;;;;;4940141;29;20459;-83
2022/11/10 00:29:46;;;;;;;5.83;1.67;;;13.30;99.90;;;;;;4926161;28;20472;-83
2022/11/10 00:32:19;;;;;;;3.90;1.40;;;13.20;99.90;;;;;;4945416;29;20468;-83
2022/11/10 00:34:54;;;;;;;5.23;1.60;;;13.20;99.90;;;;;;4942991;29;20499;-82
2022/11/10 00:37:25;;;;;;;6.03;2.50;;;13.20;99.90;;;;;;4951334;29;20829;-83
2022/11/10 00:39:59;;;;;;;5.93;2.00;;;13.20;99.90;;;;;;4932022;29;20512;-83
2022/11/10 00:42:26;;;;;;;2.87;0.90;;;13.10;99.90;;;;;;4940982;29;20472;-82
2022/11/10 00:45:00;;;;;;;1.50;1.10;;;13.20;99.90;;;;;;4954006;28;20499;-84
2022/11/10 00:47:35;;;;;;;4.33;1.53;;;13.40;99.90;;;;;;4941329;29;20451;-84
2022/11/10 00:50:02;;;;;;;5.67;1.53;;;13.50;99.90;;;;;;4941108;29;20959;-85
2022/11/10 00:52:29;;;;;;;6.00;3.50;;;13.60;99.90;;;;;;4960742;29;20483;-84
2022/11/10 00:55:14;;;;;;;6.53;1.40;;;13.40;99.90;;;;;;4947997;29;20539;-84
2022/11/10 00:57:51;;;;;;;3.67;1.57;;;13.50;99.90;;;;;;4960718;29;20456;-83
2022/11/10 01:00:20;;;;;;;4.83;1.30;;;13.60;99.90;;;;;;4944428;29;20460;-82
2022/11/10 01:02:53;;;;;;;4.17;1.40;;;13.40;99.90;;;;;;4941562;29;20799;-81
2022/11/10 01:05:31;;;;;;;3.20;1.10;;;13.30;99.90;;;;;;4933808;29;20599;-81
2022/11/10 01:08:17;;;;;;;4.63;1.60;;;13.30;99.90;;;;;;4930897;29;20449;-82
2022/11/10 01:11:33;;;;;;;5.20;1.80;;;13.20;99.90;;;;;;4936089;29;20416;-83
2022/11/10 01:14:04;;;;;;;4.00;1.53;;;13.30;99.90;;;;;;4947747;29;20452;-84
2022/11/10 01:16:39;;;;;;;5.47;1.40;;;13.30;99.90;;;;;;4942944;29;20451;-84
2022/11/10 01:19:12;;;;;;;3.77;1.37;;;13.20;99.90;;;;;;4954624;28;20519;-83
2022/11/10 01:21:59;;;;;;;9.40;1.80;;;13.10;99.90;;;;;;4965534;28;20447;-83
2022/11/10 01:24:47;;;;;;;5.80;1.50;;;13.20;99.90;;;;;;4947914;28;20433;-83
2022/11/10 01:27:17;;;;;;;8.30;1.93;;;13.20;99.90;;;;;;4940542;29;20460;-82
2022/11/10 01:29:49;;;;;;;6.30;1.50;;;13.40;99.90;;;;;;4944256;29;20883;-83
2022/11/10 01:32:21;;;;;;;5.27;1.70;;;13.30;99.90;;;;;;4948747;29;20554;-83
2022/11/10 01:34:56;;;;;;;6.30;1.67;;;13.30;99.90;;;;;;4934521;29;20533;-83
2022/11/10 01:37:23;;;;;;;5.47;1.50;;;13.40;99.90;;;;;;4943181;29;20465;-83
2022/11/10 01:39:57;;;;;;;4.50;1.93;;;13.30;99.90;;;;;;4945014;29;20449;-83
2022/11/10 01:42:40;;;;;;;7.60;1.50;;;13.20;99.90;;;;;;4926757;29;20515;-83
2022/11/10 01:45:25;;;;;;;5.80;1.90;;;13.50;99.90;;;;;;4936291;29;20488;-83
2022/11/10 01:48:01;;;;;;;6.17;1.50;;;13.40;99.90;;;;;;4942924;29;20461;-83
2022/11/10 01:50:38;;;;;;;6.93;1.47;;;13.30;99.90;;;;;;4934598;29;20974;-84
2022/11/10 01:53:15;;;;;;;12.20;1.87;;;13.40;99.90;;;;;;4941666;29;20476;-83
2022/11/10 01:55:54;;;;;;;4.53;1.57;;;13.40;99.90;;;;;;4931467;29;21267;-83
2022/11/10 01:58:31;;;;;;;8.20;1.70;;;13.40;99.90;;;;;;4937579;29;20448;-82
2022/11/10 02:01:06;;;;;;;5.73;1.50;;;13.40;99.90;;;;;;4950345;29;20826;-84
2022/11/10 02:03:48;;;;;;;4.60;1.87;;;13.20;99.90;;;;;;4931656;29;20994;-84
2022/11/10 02:06:18;;;;;;;3.73;2.07;;;13.20;99.90;;;;;;4942495;29;21083;-83
2022/11/10 02:08:49;;;;;;;4.57;1.50;;;13.00;99.90;;;;;;4955754;29;20466;-83
2022/11/10 02:11:16;;;;;;;7.53;1.47;;;12.90;99.90;;;;;;4939663;29;20456;-83
2022/11/10 02:13:49;;;;;;;5.03;1.57;;;13.10;99.90;;;;;;4958610;29;20456;-84
2022/11/10 02:16:22;;;;;;;5.60;1.80;;;13.10;99.90;;;;;;4959899;29;20497;-84
2022/11/10 02:18:54;;;;;;;4.33;1.40;;;13.30;99.90;;;;;;4933454;29;20980;-84
2022/11/10 02:21:26;;;;;;;4.00;2.33;;;13.20;99.90;;;;;;4954991;29;20488;-83
2022/11/10 02:23:55;;;;;;;3.50;1.63;;;13.30;99.90;;;;;;4934684;29;20463;-80
2022/11/10 02:26:29;;;;;;;5.43;1.77;;;13.20;99.90;;;;;;4926678;29;20547;-81
2022/11/10 02:28:58;;;;;;;6.10;2.20;;;13.20;99.90;;;;;;4938762;29;20458;-81
2022/11/10 02:31:32;;;;;;;6.50;1.67;;;13.30;99.90;;;;;;4941247;29;20472;-83
2022/11/10 02:34:02;;;;;;;6.63;2.10;;;13.20;99.90;;;;;;4926031;29;20449;-83
2022/11/10 02:36:45;;;;;;;5.20;1.90;;;13.10;99.90;;;;;;4934490;29;20448;-82
2022/11/10 02:39:21;;;;;;;5.17;1.80;;;13.10;99.90;;;;;;4936765;29;20501;-82
2022/11/10 02:41:57;;;;;;;5.93;1.77;;;13.10;99.90;;;;;;4948688;29;20472;-83
2022/11/10 02:44:30;;;;;;;6.13;1.80;;;13.00;99.90;;;;;;4948744;29;20471;-81
2022/11/10 02:47:00;;;;;;;5.20;1.80;;;13.00;99.90;;;;;;4932544;29;20485;-82
2022/11/10 02:49:30;;;;;;;8.27;2.40;;;13.00;99.90;;;;;;4925107;29;20449;-82
2022/11/10 02:52:04;;;;;;;8.10;2.00;;;12.90;99.90;;;;;;4922987;29;20476;-82
2022/11/10 02:54:34;;;;;;;12.30;2.60;;;12.80;99.90;;;;;;4944417;28;20451;-82
2022/11/10 02:57:03;;;;;;;6.83;2.57;;;12.70;99.90;;;;;;4951696;29;20550;-82
2022/11/10 02:59:39;;;;;;;6.37;2.40;;;12.70;99.90;;;;;;4939915;29;20454;-83
2022/11/10 03:02:11;;;;;;;6.07;2.00;;;12.90;99.90;;;;;;4927697;29;20865;-83
2022/11/10 03:04:40;;;;;;;6.70;1.83;;;12.90;99.90;;;;;;4944460;29;20466;-83
2022/11/10 03:07:09;;;;;;;4.97;2.30;;;13.10;99.90;;;;;;4960703;29;20537;-84
2022/11/10 03:09:46;;;;;;;8.33;2.03;;;13.10;99.90;;;;;;4946866;29;20823;-82
2022/11/10 03:12:16;;;;;;;5.27;1.20;;;13.00;99.90;;;;;;4959626;28;20565;-84
2022/11/10 03:14:48;;;;;;;4.17;1.80;;;12.90;99.90;;;;;;4961995;28;20443;-83
2022/11/10 03:17:19;;;;;;;9.90;2.57;;;12.80;99.90;;;;;;4961948;28;20495;-81
2022/11/10 03:19:51;;;;;;;5.73;1.93;;;12.80;99.90;;;;;;4967539;29;20511;-83
2022/11/10 03:22:20;;;;;;;3.70;1.83;;;12.70;99.90;;;;;;4962884;29;20546;-83
2022/11/10 03:24:47;;;;;;;6.53;2.10;;;12.60;99.90;;;;;;4963146;29;20456;-84
2022/11/10 03:27:20;;;;;;;3.33;1.70;;;12.60;99.90;;;;;;4944435;29;20483;-84
2022/11/10 03:29:51;;;;;;;5.30;1.80;;;12.50;99.90;;;;;;4938667;29;20532;-84
2022/11/10 03:32:32;;;;;;;3.27;1.57;;;12.40;99.90;;;;;;4953376;29;20468;-84
2022/11/10 03:35:02;;;;;;;6.63;2.10;;;12.30;99.90;;;;;;4959029;29;20448;-84
2022/11/10 03:37:31;;;;;;;5.47;2.10;;;12.40;99.90;;;;;;4939681;29;20589;-84
2022/11/10 03:40:06;;;;;;;2.90;1.83;;;12.20;99.90;;;;;;4940940;29;20491;-83
2022/11/10 03:42:46;;;;;;;7.60;2.90;;;12.30;99.90;;;;;;4953331;29;20482;-84
2022/11/10 03:45:24;;;;;;;3.40;1.70;;;12.50;99.90;;;;;;4935123;29;20460;-84
2022/11/10 03:47:53;;;;;;;7.83;2.17;;;12.50;99.90;;;;;;4941992;29;20463;-83
2022/11/10 03:50:32;;;;;;;6.07;1.70;;;12.50;99.90;;;;;;4941673;29;20900;-84
2022/11/10 03:53:03;;;;;;;3.10;1.70;;;12.30;99.90;;;;;;4941329;29;20563;-84
2022/11/10 03:55:38;;;;;;;4.10;1.60;;;12.30;99.90;;;;;;4948714;29;20464;-84
2022/11/10 03:58:06;;;;;;;4.90;1.80;;;12.50;99.90;;;;;;4952231;29;20495;-84
2022/11/10 04:00:55;;;;;;;4.70;1.73;;;12.50;99.90;;;;;;4934663;29;20460;-83
2022/11/10 04:03:27;;;;;;;6.20;1.90;;;12.40;99.90;;;;;;4933031;29;20916;-82
2022/11/10 04:09:00;;;;;;;4.50;2.33;;;12.30;99.90;;;;;;4956053;29;20801;-82
2022/11/10 04:17:03;;;;;;;7.80;2.83;;;12.40;99.90;;;;;;4948159;29;20502;-84
2022/11/10 04:19:32;;;;;;;6.00;2.07;;;12.30;99.90;;;;;;4929860;29;20470;-81
2022/11/10 04:22:05;;;;;;;6.13;2.77;;;12.40;99.90;;;;;;4933129;29;20499;-84
2022/11/10 04:24:37;;;;;;;6.33;2.07;;;12.40;99.90;;;;;;4941307;29;20504;-84
2022/11/10 04:27:11;;;;;;;3.50;1.67;;;12.10;99.90;;;;;;4938090;29;20843;-84
2022/11/10 04:29:42;;;;;;;7.20;2.90;;;12.10;99.90;;;;;;4941827;29;20491;-84
2022/11/10 04:32:10;;;;;;;6.10;2.30;;;12.20;99.90;;;;;;4931533;29;20483;-83
2022/11/10 04:34:41;;;;;;;4.13;1.63;;;12.30;99.90;;;;;;4949320;29;20476;-84
2022/11/10 04:37:14;;;;;;;7.50;2.13;;;12.20;99.90;;;;;;4926626;29;20538;-84
2022/11/10 04:39:47;;;;;;;4.80;2.20;;;12.10;99.90;;;;;;4942328;29;20457;-83
2022/11/10 04:42:14;;;;;;;5.77;2.17;;;12.20;99.90;;;;;;4950448;29;20499;-84
2022/11/10 04:44:45;;;;;;;6.50;2.63;;;12.30;99.90;;;;;;4957751;29;20455;-84
2022/11/10 04:47:12;;;;;;;5.77;2.10;;;12.40;99.90;;;;;;4940830;29;20565;-83
2022/11/10 04:49:45;;;;;;;6.63;1.60;;;12.30;99.90;;;;;;4933364;29;20533;-83
2022/11/10 04:52:21;;;;;;;5.97;1.87;;;12.20;99.90;;;;;;4937298;29;20878;-84
2022/11/10 04:54:49;;;;;;;9.80;2.20;;;12.30;99.90;;;;;;4935253;29;20451;-84
2022/11/10 04:57:27;;;;;;;5.23;1.80;;;12.40;99.90;;;;;;4948797;29;20470;-84
2022/11/10 04:59:56;;;;;;;7.07;2.20;;;12.30;99.90;;;;;;4929675;29;20465;-82
2022/11/10 05:02:26;;;;;;;6.90;2.20;;;12.10;99.90;;;;;;4940004;28;20493;-84
2022/11/10 05:05:07;;;;;;;6.30;2.20;;;12.20;99.90;;;;;;4943713;28;20459;-83
2022/11/10 05:07:35;;;;;;;7.07;2.50;;;12.30;99.90;;;;;;4942249;28;20484;-83
2022/11/10 05:10:06;;;;;;;7.40;2.07;;;12.20;99.90;;;;;;4942735;28;20449;-83
2022/11/10 05:12:35;;;;;;;3.63;2.00;;;12.10;99.90;;;;;;4962203;28;20539;-84
2022/11/10 05:15:14;;;;;;;7.53;2.70;;;12.10;99.90;;;;;;4970348;28;20456;-82
2022/11/10 05:17:54;;;;;;;7.47;2.13;;;12.10;99.90;;;;;;4953374;28;20471;-83
2022/11/10 05:20:23;;;;;;;7.03;2.67;;;12.10;99.90;;;;;;4928376;29;20496;-83
2022/11/10 05:26:05;;;;;;;7.00;2.27;;;12.00;99.90;;;;;;4960636;29;20555;-82
2022/11/10 05:28:46;;;;;;;6.00;2.13;;;11.90;99.90;;;;;;4932904;29;20457;-85
2022/11/10 05:31:40;;;;;;;13.83;2.33;;;11.80;99.90;;;;;;4940859;29;20492;-84
2022/11/10 05:34:23;;;;;;;3.87;2.10;;;12.00;99.90;;;;;;4936712;29;20518;-83
2022/11/10 05:36:57;;;;;;;8.23;2.10;;;12.00;99.90;;;;;;4928865;29;20446;-83
2022/11/10 05:39:31;;;;;;;4.37;1.97;;;12.00;99.90;;;;;;4933233;29;20561;-84
2022/11/10 05:42:22;;;;;;;12.03;2.37;;;11.90;99.90;;;;;;4942324;29;20488;-82
2022/11/10 05:45:06;;;;;;;3.80;1.60;;;12.00;99.90;;;;;;4957478;29;20474;-83
2022/11/10 05:47:36;;;;;;;5.77;2.50;;;11.90;99.90;;;;;;4967320;29;20514;-83
2022/11/10 05:50:27;;;;;;;7.20;2.40;;;11.90;99.90;;;;;;4970128;28;20473;-83
2022/11/10 05:53:21;;;;;;;11.67;2.07;;;11.90;99.90;;;;;;4959317;28;20460;-83
2022/11/10 05:55:55;;;;;;;4.97;2.10;;;12.00;99.90;;;;;;4964395;28;20475;-83
2022/11/10 05:58:35;;;;;;;12.10;2.90;;;11.90;99.90;;;;;;4970315;28;20458;-83
2022/11/10 06:01:10;;;;;;;7.20;2.57;;;11.90;99.90;;;;;;4963860;28;20455;-83
2022/11/10 06:03:48;;;;;;;4.63;2.00;;;11.90;99.90;;;;;;4960186;29;20450;-82
2022/11/10 06:06:23;;;;;;;9.20;2.17;;;11.90;99.90;;;;;;4948265;29;20507;-81
2022/11/10 06:09:07;;;;;;;10.67;2.40;;;11.80;99.90;;;;;;4937453;29;20458;-85
2022/11/10 06:11:45;;;;;;;5.03;2.30;;;11.70;99.90;;;;;;4946011;29;20515;-85
2022/11/10 06:14:16;;;;;;;8.83;2.27;;;11.80;99.90;;;;;;4956074;29;20552;-84
2022/11/10 06:16:45;;;;;;;4.90;2.37;;;12.00;99.90;;;;;;4950271;29;20459;-83
2022/11/10 06:19:17;;;;;;;3.60;2.10;;;12.00;99.90;;;;;;4937954;29;20927;-82
2022/11/10 06:22:19;;;;;;;11.47;2.50;;;12.00;99.90;;;;;;4930324;29;20520;-83
2022/11/10 06:25:02;;;;;;;13.60;4.87;;;11.90;99.90;;;;;;4946059;29;20460;-82
2022/11/10 06:27:49;;;;;;;4.83;2.80;;;12.00;99.90;;;;;;4941340;28;20916;-84
2022/11/10 06:30:29;;;;;;;6.40;2.10;;;12.10;99.90;;;;;;4931371;29;20460;-84
2022/11/10 06:33:19;;;;;;;5.97;2.40;;;12.10;99.90;;;;;;4938012;29;20513;-84
2022/11/10 06:35:52;;;;;;;11.43;3.27;;;12.00;99.90;;;;;;4946348;29;20543;-83
2022/11/10 06:38:45;;;;;;;8.00;2.23;;;11.90;99.90;;;;;;4929195;29;20511;-86
2022/11/10 06:44:55;;;;;;;6.37;2.40;;;12.00;99.90;;;;;;4928108;29;20525;-84
2022/11/10 06:47:29;;;;;;;5.70;2.90;;;12.00;99.90;;;;;;4908911;29;20495;-84
2022/11/10 06:50:07;;;;;;;10.93;2.77;;;11.90;99.90;;;;;;4909121;29;20446;-82
2022/11/10 06:53:04;;;;;;;7.83;2.80;;;11.70;99.90;;;;;;4904341;29;20594;-82
2022/11/10 06:55:45;;;;;;;7.20;3.20;;;11.70;99.90;;;;;;4915675;29;20458;-84
2022/11/10 06:58:20;;;;;;;13.83;3.37;;;11.90;99.90;;;;;;4924382;29;20457;-85
2022/11/10 07:01:03;;;;;;;10.73;3.83;;;12.10;99.90;;;;;;4925018;29;20472;-84
2022/11/10 07:03:40;;;;;;;7.90;3.60;;;12.00;99.90;;;;;;4920875;29;20470;-81
2022/11/10 07:06:47;;;;;;;6.13;2.20;;;12.10;99.90;;;;;;4901354;29;20592;-82
2022/11/10 07:09:25;;;;;;;5.07;2.27;;;12.10;99.90;;;;;;4912812;29;20881;-84
2022/11/10 07:12:11;;;;;;;5.20;3.13;;;12.40;99.90;;;;;;4919292;29;20483;-84
2022/11/10 07:14:48;;;;;;;5.30;3.40;;;12.40;99.90;;;;;;4904900;29;21348;-83
2022/11/10 07:17:27;;;;;;;10.27;3.00;;;12.40;99.90;;;;;;4926640;29;20478;-82
2022/11/10 07:20:01;;;;;;;5.53;2.53;;;12.50;99.90;;;;;;4935310;29;20531;-82
2022/11/10 07:22:30;;;;;;;6.07;2.90;;;12.60;99.90;;;;;;4941209;29;20915;-84
2022/11/10 07:25:08;;;;;;;4.03;2.57;;;12.60;99.90;;;;;;4933833;29;20475;-82
2022/11/10 07:27:42;;;;;;;7.77;2.90;;;12.70;99.90;;;;;;4955591;29;20969;-84
2022/11/10 07:30:15;;;;;;;6.77;3.40;;;12.70;99.90;;;;;;4960689;29;20468;-83
2022/11/10 07:33:09;;;;;;;6.73;2.87;;;12.60;99.90;;;;;;4939518;29;20512;-83
2022/11/10 07:35:56;;;;;;;8.73;3.40;;;12.50;99.90;;;;;;4946184;29;20455;-82
2022/11/10 07:38:29;;;;;;;14.13;2.77;;;12.70;99.90;;;;;;4958220;29;20568;-84
2022/11/10 07:41:10;;;;;;;5.67;2.00;;;12.90;99.90;;;;;;4953842;29;20919;-83
2022/11/10 07:43:53;;;;;;;7.37;2.60;;;12.80;99.90;;;;;;4945736;29;20459;-83
2022/11/10 07:46:46;;;;;;;4.90;2.67;;;12.80;99.90;;;;;;4940534;29;20491;-83
2022/11/10 07:49:15;;;;;;;8.47;2.00;;;12.80;99.90;;;;;;4940310;29;20472;-84
2022/11/10 07:51:49;;;;;;;5.60;2.30;;;12.80;99.90;;;;;;4942257;29;20505;-84
2022/11/10 07:54:28;;;;;;;8.40;2.93;;;12.70;99.90;;;;;;4939223;29;20465;-83
2022/11/10 07:57:08;;;;;;;9.80;2.50;;;12.70;99.90;;;;;;4938480;29;20515;-84
2022/11/10 07:59:42;;;;;;;7.33;2.37;;;12.80;99.90;;;;;;4934940;29;20456;-83
2022/11/10 08:02:21;;;;;;;10.27;2.50;;;12.90;99.90;;;;;;4940256;29;20484;-84
2022/11/10 08:04:57;;;;;;;11.77;3.40;;;12.80;99.90;;;;;;4936259;29;20500;-84
2022/11/10 08:07:31;;;;;;;5.27;2.20;;;12.90;99.90;;;;;;4943488;29;20473;-83
2022/11/10 08:10:02;;;;;;;4.80;2.50;;;12.90;99.90;;;;;;4929924;29;20461;-84
2022/11/10 08:12:35;;;;;;;4.50;2.10;;;12.90;99.90;;;;;;4940786;29;20487;-85
2022/11/10 08:15:22;;;;;;;;;;;;;;;;;;;;;
2022/11/10 08:18:08;;;;;;;4.50;2.03;;;12.90;99.90;;;;;;4948944;29;20939;-83
2022/11/10 08:20:59;;;;;;;11.17;2.17;;;13.10;99.90;;;;;;4940300;29;20974;-81
2022/11/10 08:23:29;;;;;;;6.90;2.10;;;13.00;99.90;;;;;;4944292;29;21007;-83
2022/11/10 08:26:02;;;;;;;3.33;1.63;;;13.00;99.90;;;;;;4933242;29;20468;-83
2022/11/10 08:28:32;;;;;;;9.60;2.67;;;13.20;99.90;;;;;;4939731;29;20477;-84
2022/11/10 08:31:10;;;;;;;5.93;2.33;;;13.20;99.90;;;;;;4938948;29;20492;-83
2022/11/10 08:33:46;;;;;;;9.60;2.50;;;13.40;99.90;;;;;;4926730;29;20460;-84
2022/11/10 08:36:15;;;;;;;7.20;2.87;;;13.50;99.90;;;;;;4939980;29;20961;-83
2022/11/10 08:38:50;;;;;;;7.30;2.40;;;13.40;99.90;;;;;;4934040;29;20466;-83
2022/11/10 08:41:30;;;;;;;7.07;2.60;;;13.50;99.90;;;;;;4935813;29;20491;-83
2022/11/10 08:44:01;;;;;;;8.40;2.50;;;13.50;99.90;;;;;;4951215;29;20472;-83
2022/11/10 08:46:35;;;;;;;4.57;2.30;;;13.60;99.90;;;;;;4959160;29;20463;-83
2022/11/10 08:49:05;;;;;;;9.43;2.30;;;13.50;99.90;;;;;;4936319;29;20460;-82
2022/11/10 08:51:42;;;;;;;9.07;2.60;;;13.70;99.90;;;;;;4939582;29;20506;-83
2022/11/10 08:54:19;;;;;;;4.17;2.53;;;13.70;99.90;;;;;;4947664;29;20450;-83
2022/11/10 08:56:59;;;;;;;8.00;2.33;;;13.90;99.90;;;;;;4941069;29;20469;-83
2022/11/10 08:59:37;;;;;;;7.63;2.00;;;14.10;99.90;;;;;;4947459;29;20517;-83
2022/11/10 09:02:21;;;;;;;3.67;2.00;;;14.20;99.90;;;;;;4965892;29;20483;-82
2022/11/10 09:07:47;;;;;;;7.50;2.50;;;14.20;99.90;;;;;;4953397;29;20471;-84
2022/11/10 09:10:24;;;;;;;4.50;2.00;;;14.40;99.90;;;;;;4959291;29;20458;-84
2022/11/10 09:13:00;;;;;;;7.97;2.10;;;14.40;99.90;;;;;;4943592;29;20506;-83
2022/11/10 09:15:59;;;;;;;5.93;1.93;;;14.50;99.90;;;;;;4932723;29;20448;-83
2022/11/10 09:18:56;;;;;;;4.17;2.47;;;14.60;99.80;;;;;;4961719;29;20988;-83
2022/11/10 09:22:11;;;;;;;5.40;1.70;;;14.60;99.70;;;;;;4945976;29;20495;-83
2022/11/10 09:24:44;;;;;;;4.50;1.57;;;14.50;99.90;;;;;;4933092;29;20471;-83
2022/11/10 09:27:25;;;;;;;8.00;3.13;;;14.50;99.90;;;;;;4941282;29;20485;-84
2022/11/10 09:30:25;;;;;;;3.63;2.00;;;15.60;99.10;;;;;;4946513;29;20470;-83
2022/11/10 09:33:18;;;;;;;4.30;1.50;;;17.10;95.50;;;;;;4956501;29;20477;-83
2022/11/10 09:36:13;;;;;;;6.43;2.70;;;18.00;93.00;;;;;;4944227;29;20465;-82
2022/11/10 09:38:51;;;;;;;6.57;2.90;;;19.60;90.50;;;;;;4960302;29;20955;-82
2022/11/10 09:41:32;;;;;;;5.43;2.07;;;20.30;87.60;;;;;;4944615;29;20494;-83
2022/11/10 09:44:45;;;;;;;8.00;2.17;;;19.30;88.10;;;;;;4929247;28;20504;-83
2022/11/10 09:47:49;;;;;;;6.97;2.00;;;18.60;90.60;;;;;;4941504;29;20905;-81
2022/11/10 09:54:13;;;;;;;6.10;1.80;;;18.10;91.70;;;;;;5030413;23;20487;-82
2022/11/10 09:56:58;;;;;;;8.80;2.20;;;17.50;92.00;;;;;;4949646;28;20513;-83
2022/11/10 10:00:13;;;;;;;;;;;;;;;;;;;;;
2022/11/10 10:03:07;;;;;;;8.53;2.30;;;16.60;94.10;;;;;;4979243;28;20478;-83
2022/11/10 10:05:45;;;;;;;7.60;1.80;;;16.40;94.70;;;;;;4955727;28;20462;-82
2022/11/10 10:09:14;;;;;;;3.23;1.77;;;16.10;95.20;;;;;;4957621;28;20536;-83
2022/11/10 10:12:16;;;;;;;8.40;1.80;;;16.10;95.20;;;;;;4959806;28;20889;-81
2022/11/10 10:15:06;;;;;;;5.93;2.00;;;16.10;95.40;;;;;;4970040;28;20475;-83
2022/11/10 10:18:36;;;;;;;7.43;2.47;;;16.20;95.50;;;;;;4956729;28;20610;-82
2022/11/10 10:21:41;;;;;;;5.73;2.10;;;16.30;94.80;;;;;;4977586;28;20454;-84
2022/11/10 10:28:22;;;;;;;2.77;1.40;;;16.20;95.30;;;;;;4978822;28;20585;-85
2022/11/10 10:39:05;;;;;;;6.63;1.90;;;16.30;94.50;;;;;;4949206;28;20486;-85
2022/11/10 10:41:46;;;;;;;11.40;2.10;;;16.30;94.60;;;;;;4946656;28;20482;-84
2022/11/10 10:44:43;;;;;;;4.20;1.43;;;16.10;94.90;;;;;;4930961;29;20500;-84
2022/11/10 10:47:42;;;;;;;5.43;1.87;;;16.10;94.80;;;;;;4962061;28;20514;-85
2022/11/10 10:54:38;;;;;;;12.00;2.23;;;16.30;94.60;;;;;;4964849;28;20532;-84
2022/11/10 10:58:09;;;;;;;5.50;1.50;;;16.50;93.90;;;;;;4953410;28;20462;-84
2022/11/10 11:01:52;;;;;;;7.63;2.53;;;16.60;93.60;;;;;;4949276;29;20494;-84
2022/11/10 11:04:41;;;;;;;7.50;1.67;;;16.60;93.70;;;;;;4938365;28;20807;-84
2022/11/10 11:07:25;;;;;;;6.80;2.10;;;16.60;93.30;;;;;;4973280;28;20682;-84
2022/11/10 11:09:55;;;;;;;5.50;1.60;;;16.60;93.00;;;;;;4969007;28;20471;-83
2022/11/10 11:12:30;;;;;;;7.17;2.23;;;16.70;93.40;;;;;;4948576;29;20474;-84
2022/11/10 11:15:25;;;;;;;6.87;1.57;;;16.70;92.90;;;;;;4978229;28;20463;-84
2022/11/10 11:18:14;;;;;;;3.40;1.63;;;16.60;93.20;;;;;;4960848;28;20479;-84
2022/11/10 11:21:24;;;;;;;8.73;1.70;;;16.60;93.10;;;;;;4960220;28;20490;-84
2022/11/10 11:24:28;;;;;;;8.97;1.70;;;16.70;93.20;;;;;;4965774;28;20467;-81
2022/11/10 11:27:32;;;;;;;5.43;2.03;;;16.70;92.60;;;;;;4950483;28;20469;-85
2022/11/10 11:30:16;;;;;;;6.77;1.50;;;16.50;92.90;;;;;;4960655;28;20449;-85
2022/11/10 11:33:21;;;;;;;5.27;1.37;;;16.30;93.30;;;;;;4992641;23;20486;-84
2022/11/10 11:36:30;;;;;;;5.77;1.50;;;16.40;93.00;;;;;;4982046;28;20460;-84
2022/11/10 11:39:42;;;;;;;6.30;1.90;;;16.50;92.70;;;;;;4994024;28;20502;-84
2022/11/10 11:42:27;;;;;;;6.60;1.97;;;16.20;93.20;;;;;;5006822;28;20488;-85
2022/11/10 11:45:47;;;;;;;5.60;1.60;;;16.20;93.40;;;;;;4930433;29;20466;-85
2022/11/10 11:48:28;;;;;;;4.33;1.80;;;16.10;93.60;;;;;;4935110;29;21139;-85
2022/11/10 11:51:24;;;;;;;6.57;1.70;;;16.40;92.80;;;;;;4935760;29;20466;-84
2022/11/10 11:54:30;;;;;;;8.73;1.90;;;16.80;92.40;;;;;;4951471;29;20511;-85
2022/11/10 11:57:30;;;;;;;1.87;1.40;;;16.80;92.40;;;;;;4945155;29;20452;-85
2022/11/10 12:00:41;;;;;;;4.20;1.70;;;16.90;91.90;;;;;;4937136;29;20468;-84
2022/11/10 12:03:21;;;;;;;4.23;1.90;;;16.90;91.70;;;;;;4924977;29;20826;-84
2022/11/10 12:06:28;;;;;;;5.57;2.10;;;16.70;92.20;;;;;;4944335;29;20451;-83
2022/11/10 12:09:16;;;;;;;4.40;1.73;;;16.60;92.20;;;;;;4970564;28;20481;-83
2022/11/10 12:12:03;;;;;;;5.27;2.00;;;16.80;91.80;;;;;;4947955;29;20524;-84
2022/11/10 12:15:15;;;;;;;5.23;1.73;;;16.80;91.80;;;;;;4941728;29;20539;-84
2022/11/10 12:17:54;;;;;;;10.30;1.53;;;16.70;91.80;;;;;;4978540;28;20546;-84
2022/11/10 12:21:14;;;;;;;6.77;1.83;;;16.40;92.40;;;;;;5007937;28;20480;-84
2022/11/10 12:24:34;;;;;;;8.40;2.00;;;16.20;93.00;;;;;;4986022;28;20523;-84
2022/11/10 12:27:15;;;;;;;6.63;1.67;;;16.70;92.60;;;;;;4996379;28;20535;-84
2022/11/10 12:29:59;;;;;;;5.10;1.80;;;16.90;92.00;;;;;;4992698;28;20449;-83
2022/11/10 12:40:22;;;;;;;8.07;3.07;;;17.00;92.10;;;;;;4956740;29;20442;-85
2022/11/10 12:43:07;;;;;;;2.70;1.33;;;17.10;91.70;;;;;;4973764;28;20531;-84
2022/11/10 12:46:09;;;;;;;2.80;1.67;;;17.10;91.40;;;;;;4995124;28;20446;-85
2022/11/10 12:49:21;;;;;;;7.57;2.50;;;17.00;91.30;;;;;;5014511;28;20475;-84
2022/11/10 12:52:01;;;;;;;4.10;1.20;;;16.70;91.60;;;;;;4999258;28;20846;-84
2022/11/10 12:55:04;;;;;;;3.63;1.20;;;16.90;91.70;;;;;;5001568;28;20456;-84
2022/11/10 12:57:43;;;;;;;5.33;1.63;;;17.10;90.80;;;;;;4999218;28;21033;-84
2022/11/10 13:00:30;;;;;;;3.60;1.90;;;17.10;91.00;;;;;;4984757;28;20469;-84
2022/11/10 13:07:19;;;;;;;4.17;1.17;;;16.50;91.60;;;;;;5013534;28;20461;-84
2022/11/10 13:10:31;;;;;;;9.87;2.50;;;17.00;91.10;;;;;;4921765;29;20469;-83
2022/11/10 13:13:42;;;;;;;;;;;;;;;;;;;;;
2022/11/10 13:16:50;;;;;;;3.27;1.30;;;17.00;90.80;;;;;;4976635;28;20458;-84
2022/11/10 13:19:55;;;;;;;6.70;1.30;;;17.20;90.10;;;;;;4963192;28;20440;-84
2022/11/10 13:23:06;;;;;;;5.47;1.40;;;17.20;90.00;;;;;;4972876;28;20472;-85
2022/11/10 13:25:50;;;;;;;4.33;1.13;;;17.10;90.40;;;;;;4972322;28;20460;-85
2022/11/10 13:28:46;;;;;;;5.33;1.47;;;17.10;90.40;;;;;;4940972;29;20484;-84
2022/11/10 13:32:17;;;;;;;;;;;;;;;;;;;;;
2022/11/10 13:35:40;;;;;;;3.53;1.93;;;16.80;90.90;;;;;;4875450;29;20447;-85
2022/11/10 13:39:14;;;;;;;3.07;1.20;;;17.40;89.20;;;;;;4919951;29;20921;-84
2022/11/10 13:42:18;;;;;;;2.67;1.23;;;17.40;88.50;;;;;;5072288;23;20514;-83
2022/11/10 13:44:53;;;;;;;5.60;1.20;;;16.90;89.40;;;;;;4984168;28;20447;-84
2022/11/10 13:48:23;;;;;;;6.10;1.43;;;17.00;90.20;;;;;;5000595;28;20439;-85
2022/11/10 13:51:16;;;;;;;4.10;1.30;;;17.00;90.30;;;;;;4976909;28;20456;-83
2022/11/10 13:54:19;;;;;;;3.03;1.43;;;17.50;90.50;;;;;;4959117;28;20459;-83
2022/11/10 13:57:17;;;;;;;5.20;1.40;;;17.40;90.70;;;;;;4953937;29;20464;-84
2022/11/10 14:00:26;;;;;;;4.20;1.30;;;17.40;90.80;;;;;;4952327;29;20475;-83
2022/11/10 14:03:49;;;;;;;5.90;1.73;;;17.50;90.70;;;;;;4954622;29;20492;-83
2022/11/10 14:06:50;;;;;;;4.47;1.80;;;17.40;90.60;;;;;;4951481;28;20459;-82
2022/11/10 14:09:54;;;;;;;6.27;1.37;;;17.30;91.10;;;;;;4955056;29;20503;-83
2022/11/10 14:13:13;;;;;;;7.40;3.53;;;17.30;91.10;;;;;;4951814;29;20486;-83
2022/11/10 14:15:47;;;;;;;2.93;1.33;;;17.00;91.10;;;;;;4942303;29;20468;-84
2022/11/10 14:28:00;;;;;;;5.30;1.63;;;16.70;88.70;;;;;;4975166;28;20494;-84
2022/11/10 14:31:28;;;;;;;2.60;1.07;;;17.10;87.80;;;;;;4972750;28;20458;-84
2022/11/10 14:34:45;;;;;;;;;;;;;;;;;;;;;
2022/11/10 14:37:28;;;;;;;2.00;1.20;;;16.90;87.40;;;;;;4959830;28;20462;-83
2022/11/10 14:40:27;;;;;;;3.87;1.03;;;16.60;87.20;;;;;;4952489;29;20461;-81
2022/11/10 14:43:30;;;;;;;5.37;3.13;;;16.50;87.10;;;;;;5066899;23;20517;-84
2022/11/10 14:46:17;;;;;;;3.17;1.20;;;16.40;87.30;;;;;;5013483;28;20474;-84
2022/11/10 14:49:11;;;;;;;3.80;0.83;;;16.30;87.40;;;;;;4998147;28;20489;-84
2022/11/10 14:52:07;;;;;;;2.40;1.20;;;16.30;86.80;;;;;;5006134;28;20536;-83
2022/11/10 14:55:02;;;;;;;;;;;;;;;;;;;;;
2022/11/10 14:57:33;;;;;;;3.07;0.97;;;16.30;87.00;;;;;;5017143;28;20477;-84
2022/11/10 15:00:10;;;;;;;2.10;1.00;;;17.00;85.00;;;;;;5016273;28;20654;-84
2022/11/10 15:02:39;;;;;;;1.63;0.80;;;17.20;83.40;;;;;;4999571;28;20511;-83
2022/11/10 15:05:33;;;;;;;3.60;1.00;;;17.30;83.00;;;;;;4984894;28;20446;-84
2022/11/10 15:08:23;;;;;;;7.10;2.93;;;17.10;83.00;;;;;;5016537;28;20480;-84
2022/11/10 15:10:59;;;;;;;4.70;1.00;;;16.70;83.90;;;;;;5000824;28;20516;-84
2022/11/10 15:13:48;;;;;;;3.70;1.00;;;16.40;85.60;;;;;;4996207;28;21044;-84
2022/11/10 15:16:26;;;;;;;2.40;1.47;;;16.40;86.80;;;;;;4999062;28;20456;-84
2022/11/10 15:23:08;;;;;;;7.50;1.30;;;16.80;87.30;;;;;;4997604;28;20477;-83